KSBA/SBA METAR and TAF weather

Enter ICAO airport designator
Station Type Date Time Source
KSBA METAR 2018/12/15 22:53 UTC NOAA

KSBA 152253Z 26009KT 10SM CLR 18/11 A3004 RMK AO2 SLP173 T01780111


Station Type Date Time Source
KSBA Decoded METAR 2018/12/15 22:53 UTC NOAA

SANTA BARBARA MUNICIPAL, CA, United States (KSBA) 34-26N 119-51W 3M
Dec 15, 2018 - 05:53 PM EST / 2018.12.15 2253 UTC
Wind: from the W (260 degrees) at 10 MPH (9 KT):0
Visibility: 10 mile(s):0
Sky conditions: clear
Temperature: 64.0 F (17.8 C)
Dew Point: 52.0 F (11.1 C)
Relative Humidity: 64%
Pressure (altimeter): 30.04 in. Hg (1017 hPa)
ob: KSBA 152253Z 26009KT 10SM CLR 18/11 A3004 RMK AO2 SLP173 T01780111
cycle: 23

Station Type Date Time Source
KSBA TAF 2018/12/15 18:30 UTC NOAA

TAF KSBA 151726Z 1518/1618 VRB03KT P6SM SCT200
FM152100 25005KT P6SM SCT200
FM160200 VRB03KT P6SM SCT200


Example: see airport list